sensor_id;sensor_type;location;lat;lon;timestamp;P1;durP1;ratioP1;P2;durP2;ratioP2
20814;SDS011;10568;48.176;16.316;2023-03-17T00:02:08;9.17;;;4.37;;
20814;SDS011;10568;48.176;16.316;2023-03-17T00:04:35;7.97;;;4.20;;
20814;SDS011;10568;48.176;16.316;2023-03-17T00:07:00;6.53;;;4.07;;
20814;SDS011;10568;48.176;16.316;2023-03-17T00:09:26;8.57;;;5.00;;
20814;SDS011;10568;48.176;16.316;2023-03-17T00:11:52;4.87;;;3.67;;
20814;SDS011;10568;48.176;16.316;2023-03-17T00:14:18;9.03;;;4.40;;
20814;SDS011;10568;48.176;16.316;2023-03-17T00:16:46;12.57;;;4.73;;
20814;SDS011;10568;48.176;16.316;2023-03-17T00:19:18;7.90;;;3.53;;
20814;SDS011;10568;48.176;16.316;2023-03-17T00:21:50;8.97;;;4.37;;
20814;SDS011;10568;48.176;16.316;2023-03-17T00:27:47;10.93;;;4.00;;
20814;SDS011;10568;48.176;16.316;2023-03-17T00:32:58;5.20;;;3.67;;
20814;SDS011;10568;48.176;16.316;2023-03-17T00:35:27;7.03;;;3.43;;
20814;SDS011;10568;48.176;16.316;2023-03-17T00:37:54;8.90;;;3.93;;
20814;SDS011;10568;48.176;16.316;2023-03-17T00:40:22;6.57;;;3.47;;
20814;SDS011;10568;48.176;16.316;2023-03-17T00:42:51;11.23;;;4.07;;
20814;SDS011;10568;48.176;16.316;2023-03-17T00:45:20;8.13;;;4.10;;
20814;SDS011;10568;48.176;16.316;2023-03-17T00:47:49;5.73;;;3.50;;
20814;SDS011;10568;48.176;16.316;2023-03-17T00:53:40;10.70;;;4.03;;
20814;SDS011;10568;48.176;16.316;2023-03-17T00:56:10;5.10;;;3.20;;
20814;SDS011;10568;48.176;16.316;2023-03-17T00:58:39;4.80;;;3.67;;
20814;SDS011;10568;48.176;16.316;2023-03-17T01:01:06;6.00;;;3.47;;
20814;SDS011;10568;48.176;16.316;2023-03-17T01:03:33;5.43;;;3.30;;
20814;SDS011;10568;48.176;16.316;2023-03-17T01:06:00;5.83;;;3.37;;
20814;SDS011;10568;48.176;16.316;2023-03-17T01:08:27;5.90;;;3.87;;
20814;SDS011;10568;48.176;16.316;2023-03-17T01:10:54;5.37;;;3.30;;
20814;SDS011;10568;48.176;16.316;2023-03-17T01:13:21;6.80;;;3.37;;
20814;SDS011;10568;48.176;16.316;2023-03-17T01:15:47;6.73;;;3.07;;
20814;SDS011;10568;48.176;16.316;2023-03-17T01:18:15;4.87;;;3.43;;
20814;SDS011;10568;48.176;16.316;2023-03-17T01:20:42;5.97;;;3.77;;
20814;SDS011;10568;48.176;16.316;2023-03-17T01:23:08;4.70;;;3.40;;
20814;SDS011;10568;48.176;16.316;2023-03-17T01:25:36;5.67;;;2.77;;
20814;SDS011;10568;48.176;16.316;2023-03-17T01:28:03;6.53;;;3.20;;
20814;SDS011;10568;48.176;16.316;2023-03-17T01:30:31;6.40;;;3.23;;
20814;SDS011;10568;48.176;16.316;2023-03-17T01:32:59;6.20;;;3.70;;
20814;SDS011;10568;48.176;16.316;2023-03-17T01:35:31;6.33;;;3.17;;
20814;SDS011;10568;48.176;16.316;2023-03-17T01:37:57;6.27;;;3.43;;
20814;SDS011;10568;48.176;16.316;2023-03-17T01:40:24;5.03;;;2.90;;
20814;SDS011;10568;48.176;16.316;2023-03-17T01:42:58;5.43;;;3.33;;
20814;SDS011;10568;48.176;16.316;2023-03-17T01:48:37;7.10;;;3.23;;
20814;SDS011;10568;48.176;16.316;2023-03-17T01:51:12;4.93;;;2.43;;
20814;SDS011;10568;48.176;16.316;2023-03-17T01:53:55;4.27;;;2.53;;
20814;SDS011;10568;48.176;16.316;2023-03-17T01:56:23;3.90;;;2.50;;
20814;SDS011;10568;48.176;16.316;2023-03-17T01:58:50;3.20;;;2.73;;
20814;SDS011;10568;48.176;16.316;2023-03-17T02:01:20;4.70;;;2.40;;
20814;SDS011;10568;48.176;16.316;2023-03-17T02:03:49;5.13;;;3.57;;
20814;SDS011;10568;48.176;16.316;2023-03-17T02:06:16;4.93;;;2.70;;
20814;SDS011;10568;48.176;16.316;2023-03-17T02:08:42;4.00;;;2.67;;
20814;SDS011;10568;48.176;16.316;2023-03-17T02:11:08;3.47;;;2.50;;
20814;SDS011;10568;48.176;16.316;2023-03-17T02:13:35;6.00;;;2.80;;
20814;SDS011;10568;48.176;16.316;2023-03-17T02:16:01;3.50;;;2.60;;
20814;SDS011;10568;48.176;16.316;2023-03-17T02:18:28;6.17;;;3.13;;
20814;SDS011;10568;48.176;16.316;2023-03-17T02:23:25;3.47;;;2.20;;
20814;SDS011;10568;48.176;16.316;2023-03-17T02:25:51;2.93;;;2.67;;
20814;SDS011;10568;48.176;16.316;2023-03-17T02:28:20;5.53;;;2.57;;
20814;SDS011;10568;48.176;16.316;2023-03-17T02:30:48;7.33;;;3.00;;
20814;SDS011;10568;48.176;16.316;2023-03-17T02:33:14;4.60;;;2.97;;
20814;SDS011;10568;48.176;16.316;2023-03-17T02:35:40;5.80;;;2.37;;
20814;SDS011;10568;48.176;16.316;2023-03-17T02:38:06;5.40;;;2.57;;
20814;SDS011;10568;48.176;16.316;2023-03-17T02:40:32;4.87;;;2.67;;
20814;SDS011;10568;48.176;16.316;2023-03-17T02:42:58;6.03;;;3.37;;
20814;SDS011;10568;48.176;16.316;2023-03-17T02:45:24;6.93;;;2.70;;
20814;SDS011;10568;48.176;16.316;2023-03-17T02:47:51;3.90;;;2.50;;
20814;SDS011;10568;48.176;16.316;2023-03-17T02:50:19;3.37;;;2.23;;
20814;SDS011;10568;48.176;16.316;2023-03-17T02:52:47;3.93;;;2.20;;
20814;SDS011;10568;48.176;16.316;2023-03-17T02:55:13;4.50;;;2.63;;
20814;SDS011;10568;48.176;16.316;2023-03-17T02:57:39;4.43;;;2.70;;
20814;SDS011;10568;48.176;16.316;2023-03-17T03:00:05;3.53;;;2.53;;
20814;SDS011;10568;48.176;16.316;2023-03-17T03:02:34;4.23;;;2.50;;
20814;SDS011;10568;48.176;16.316;2023-03-17T03:05:04;2.73;;;2.03;;
20814;SDS011;10568;48.176;16.316;2023-03-17T03:07:32;3.73;;;2.20;;
20814;SDS011;10568;48.176;16.316;2023-03-17T03:09:59;6.47;;;2.50;;
20814;SDS011;10568;48.176;16.316;2023-03-17T03:12:26;3.67;;;2.60;;
20814;SDS011;10568;48.176;16.316;2023-03-17T03:14:52;6.63;;;2.50;;
20814;SDS011;10568;48.176;16.316;2023-03-17T03:17:17;3.77;;;2.70;;
20814;SDS011;10568;48.176;16.316;2023-03-17T03:19:45;3.63;;;2.30;;
20814;SDS011;10568;48.176;16.316;2023-03-17T03:22:13;3.83;;;2.57;;
20814;SDS011;10568;48.176;16.316;2023-03-17T03:24:38;3.27;;;1.93;;
20814;SDS011;10568;48.176;16.316;2023-03-17T03:27:04;2.47;;;1.90;;
20814;SDS011;10568;48.176;16.316;2023-03-17T03:29:30;3.60;;;2.20;;
20814;SDS011;10568;48.176;16.316;2023-03-17T03:31:56;3.30;;;2.33;;
20814;SDS011;10568;48.176;16.316;2023-03-17T03:34:22;3.67;;;2.50;;
20814;SDS011;10568;48.176;16.316;2023-03-17T03:36:48;4.53;;;2.20;;
20814;SDS011;10568;48.176;16.316;2023-03-17T03:39:14;4.43;;;1.97;;
20814;SDS011;10568;48.176;16.316;2023-03-17T03:41:40;2.27;;;1.73;;
20814;SDS011;10568;48.176;16.316;2023-03-17T03:44:06;2.53;;;1.73;;
20814;SDS011;10568;48.176;16.316;2023-03-17T03:46:31;2.83;;;2.40;;
20814;SDS011;10568;48.176;16.316;2023-03-17T03:48:57;3.17;;;2.00;;
20814;SDS011;10568;48.176;16.316;2023-03-17T03:51:23;3.57;;;2.30;;
20814;SDS011;10568;48.176;16.316;2023-03-17T03:53:48;3.57;;;1.90;;
20814;SDS011;10568;48.176;16.316;2023-03-17T03:56:14;2.30;;;2.10;;
20814;SDS011;10568;48.176;16.316;2023-03-17T03:58:40;2.43;;;2.03;;
20814;SDS011;10568;48.176;16.316;2023-03-17T04:01:07;3.60;;;2.23;;
20814;SDS011;10568;48.176;16.316;2023-03-17T04:03:36;3.27;;;2.20;;
20814;SDS011;10568;48.176;16.316;2023-03-17T04:06:02;4.83;;;2.03;;
20814;SDS011;10568;48.176;16.316;2023-03-17T04:08:29;3.27;;;2.33;;
20814;SDS011;10568;48.176;16.316;2023-03-17T04:10:58;3.90;;;2.50;;
20814;SDS011;10568;48.176;16.316;2023-03-17T04:13:24;5.13;;;2.73;;
20814;SDS011;10568;48.176;16.316;2023-03-17T04:15:50;3.80;;;2.90;;
20814;SDS011;10568;48.176;16.316;2023-03-17T04:18:16;4.50;;;2.73;;
20814;SDS011;10568;48.176;16.316;2023-03-17T04:20:42;4.10;;;2.00;;
20814;SDS011;10568;48.176;16.316;2023-03-17T04:23:08;6.07;;;2.53;;
20814;SDS011;10568;48.176;16.316;2023-03-17T04:25:34;3.40;;;2.40;;
20814;SDS011;10568;48.176;16.316;2023-03-17T04:28:00;3.40;;;2.37;;
20814;SDS011;10568;48.176;16.316;2023-03-17T04:30:26;3.63;;;3.20;;
20814;SDS011;10568;48.176;16.316;2023-03-17T04:32:52;2.47;;;2.13;;
20814;SDS011;10568;48.176;16.316;2023-03-17T04:35:18;3.47;;;2.20;;
20814;SDS011;10568;48.176;16.316;2023-03-17T04:37:46;2.83;;;2.53;;
20814;SDS011;10568;48.176;16.316;2023-03-17T04:40:13;4.07;;;2.40;;
20814;SDS011;10568;48.176;16.316;2023-03-17T04:42:40;3.63;;;2.40;;
20814;SDS011;10568;48.176;16.316;2023-03-17T04:45:07;3.73;;;2.30;;
20814;SDS011;10568;48.176;16.316;2023-03-17T04:47:36;4.63;;;2.53;;
20814;SDS011;10568;48.176;16.316;2023-03-17T04:50:04;3.00;;;2.40;;
20814;SDS011;10568;48.176;16.316;2023-03-17T04:52:32;3.53;;;2.50;;
20814;SDS011;10568;48.176;16.316;2023-03-17T04:54:58;5.63;;;2.60;;
20814;SDS011;10568;48.176;16.316;2023-03-17T04:57:23;7.43;;;2.57;;
20814;SDS011;10568;48.176;16.316;2023-03-17T04:59:49;4.33;;;2.73;;
20814;SDS011;10568;48.176;16.316;2023-03-17T05:05:09;3.60;;;2.17;;
20814;SDS011;10568;48.176;16.316;2023-03-17T05:07:35;4.23;;;2.20;;
20814;SDS011;10568;48.176;16.316;2023-03-17T05:10:00;3.63;;;2.40;;
20814;SDS011;10568;48.176;16.316;2023-03-17T05:12:26;3.03;;;1.73;;
20814;SDS011;10568;48.176;16.316;2023-03-17T05:14:52;5.43;;;2.50;;
20814;SDS011;10568;48.176;16.316;2023-03-17T05:17:18;5.53;;;2.17;;
20814;SDS011;10568;48.176;16.316;2023-03-17T05:19:44;4.40;;;2.70;;
20814;SDS011;10568;48.176;16.316;2023-03-17T05:22:11;2.90;;;2.07;;
20814;SDS011;10568;48.176;16.316;2023-03-17T05:24:36;5.97;;;2.87;;
20814;SDS011;10568;48.176;16.316;2023-03-17T05:27:02;8.97;;;2.60;;
20814;SDS011;10568;48.176;16.316;2023-03-17T05:29:28;2.93;;;2.27;;
20814;SDS011;10568;48.176;16.316;2023-03-17T05:31:54;3.50;;;2.30;;
20814;SDS011;10568;48.176;16.316;2023-03-17T05:34:19;4.63;;;2.10;;
20814;SDS011;10568;48.176;16.316;2023-03-17T05:36:45;3.50;;;2.40;;
20814;SDS011;10568;48.176;16.316;2023-03-17T05:39:11;3.87;;;2.50;;
20814;SDS011;10568;48.176;16.316;2023-03-17T05:41:37;3.30;;;2.40;;
20814;SDS011;10568;48.176;16.316;2023-03-17T05:44:02;7.07;;;2.00;;
20814;SDS011;10568;48.176;16.316;2023-03-17T05:46:28;4.43;;;2.40;;
20814;SDS011;10568;48.176;16.316;2023-03-17T05:48:54;2.50;;;1.63;;
20814;SDS011;10568;48.176;16.316;2023-03-17T05:51:20;7.47;;;2.60;;
20814;SDS011;10568;48.176;16.316;2023-03-17T05:53:47;3.13;;;2.10;;
20814;SDS011;10568;48.176;16.316;2023-03-17T05:56:12;3.20;;;2.10;;
20814;SDS011;10568;48.176;16.316;2023-03-17T05:58:38;4.50;;;2.90;;
20814;SDS011;10568;48.176;16.316;2023-03-17T06:01:07;2.63;;;2.13;;
20814;SDS011;10568;48.176;16.316;2023-03-17T06:03:33;3.20;;;1.73;;
20814;SDS011;10568;48.176;16.316;2023-03-17T06:06:02;4.63;;;2.93;;
20814;SDS011;10568;48.176;16.316;2023-03-17T06:08:29;3.50;;;2.20;;
20814;SDS011;10568;48.176;16.316;2023-03-17T06:10:55;4.27;;;2.17;;
20814;SDS011;10568;48.176;16.316;2023-03-17T06:13:22;3.53;;;2.30;;
20814;SDS011;10568;48.176;16.316;2023-03-17T06:15:47;7.67;;;3.30;;
20814;SDS011;10568;48.176;16.316;2023-03-17T06:18:17;2.70;;;2.00;;
20814;SDS011;10568;48.176;16.316;2023-03-17T06:20:44;3.10;;;2.30;;
20814;SDS011;10568;48.176;16.316;2023-03-17T06:23:09;6.53;;;2.67;;
20814;SDS011;10568;48.176;16.316;2023-03-17T06:25:35;5.17;;;2.60;;
20814;SDS011;10568;48.176;16.316;2023-03-17T06:28:02;3.93;;;2.40;;
20814;SDS011;10568;48.176;16.316;2023-03-17T06:30:32;5.30;;;2.63;;
20814;SDS011;10568;48.176;16.316;2023-03-17T06:33:00;2.23;;;2.03;;
20814;SDS011;10568;48.176;16.316;2023-03-17T06:35:26;3.20;;;1.80;;
20814;SDS011;10568;48.176;16.316;2023-03-17T06:37:53;3.20;;;2.47;;
20814;SDS011;10568;48.176;16.316;2023-03-17T06:40:18;5.23;;;2.33;;
20814;SDS011;10568;48.176;16.316;2023-03-17T06:42:44;9.23;;;2.37;;
20814;SDS011;10568;48.176;16.316;2023-03-17T06:45:10;2.93;;;2.30;;
20814;SDS011;10568;48.176;16.316;2023-03-17T06:47:36;5.90;;;2.33;;
20814;SDS011;10568;48.176;16.316;2023-03-17T06:50:04;4.17;;;2.37;;
20814;SDS011;10568;48.176;16.316;2023-03-17T06:52:30;4.07;;;2.80;;
20814;SDS011;10568;48.176;16.316;2023-03-17T06:54:56;6.33;;;2.73;;
20814;SDS011;10568;48.176;16.316;2023-03-17T06:57:21;4.97;;;2.10;;
20814;SDS011;10568;48.176;16.316;2023-03-17T06:59:47;3.87;;;2.37;;
20814;SDS011;10568;48.176;16.316;2023-03-17T07:02:13;5.50;;;2.73;;
20814;SDS011;10568;48.176;16.316;2023-03-17T07:04:39;3.20;;;2.50;;
20814;SDS011;10568;48.176;16.316;2023-03-17T07:07:05;5.30;;;2.53;;
20814;SDS011;10568;48.176;16.316;2023-03-17T07:09:34;5.00;;;2.50;;
20814;SDS011;10568;48.176;16.316;2023-03-17T07:12:00;3.37;;;2.23;;
20814;SDS011;10568;48.176;16.316;2023-03-17T07:14:33;2.93;;;1.90;;
20814;SDS011;10568;48.176;16.316;2023-03-17T07:17:01;7.30;;;2.43;;
20814;SDS011;10568;48.176;16.316;2023-03-17T07:19:28;5.50;;;2.93;;
20814;SDS011;10568;48.176;16.316;2023-03-17T07:21:55;4.57;;;2.07;;
20814;SDS011;10568;48.176;16.316;2023-03-17T07:24:21;4.17;;;2.30;;
20814;SDS011;10568;48.176;16.316;2023-03-17T07:26:47;3.07;;;2.27;;
20814;SDS011;10568;48.176;16.316;2023-03-17T07:29:13;4.50;;;2.63;;
20814;SDS011;10568;48.176;16.316;2023-03-17T07:31:39;6.50;;;2.43;;
20814;SDS011;10568;48.176;16.316;2023-03-17T07:34:05;5.63;;;2.80;;
20814;SDS011;10568;48.176;16.316;2023-03-17T07:36:32;5.00;;;2.60;;
20814;SDS011;10568;48.176;16.316;2023-03-17T07:38:59;4.60;;;2.53;;
20814;SDS011;10568;48.176;16.316;2023-03-17T07:41:25;3.60;;;2.17;;
20814;SDS011;10568;48.176;16.316;2023-03-17T07:43:52;4.80;;;2.30;;
20814;SDS011;10568;48.176;16.316;2023-03-17T07:46:18;4.03;;;2.57;;
20814;SDS011;10568;48.176;16.316;2023-03-17T07:48:45;7.60;;;2.93;;
20814;SDS011;10568;48.176;16.316;2023-03-17T07:51:12;5.57;;;3.00;;
20814;SDS011;10568;48.176;16.316;2023-03-17T07:53:39;4.33;;;2.17;;
20814;SDS011;10568;48.176;16.316;2023-03-17T07:56:06;4.90;;;2.70;;
20814;SDS011;10568;48.176;16.316;2023-03-17T07:58:32;7.70;;;2.63;;
20814;SDS011;10568;48.176;16.316;2023-03-17T08:00:58;6.60;;;3.20;;
20814;SDS011;10568;48.176;16.316;2023-03-17T08:03:24;6.87;;;2.80;;
20814;SDS011;10568;48.176;16.316;2023-03-17T08:05:53;4.40;;;2.77;;
20814;SDS011;10568;48.176;16.316;2023-03-17T08:08:22;4.17;;;2.47;;
20814;SDS011;10568;48.176;16.316;2023-03-17T08:10:49;3.13;;;2.17;;
20814;SDS011;10568;48.176;16.316;2023-03-17T08:13:16;3.53;;;2.07;;
20814;SDS011;10568;48.176;16.316;2023-03-17T08:15:42;4.70;;;2.03;;
20814;SDS011;10568;48.176;16.316;2023-03-17T08:18:08;3.33;;;1.93;;
20814;SDS011;10568;48.176;16.316;2023-03-17T08:20:34;6.00;;;2.50;;
20814;SDS011;10568;48.176;16.316;2023-03-17T08:23:01;4.20;;;1.97;;
20814;SDS011;10568;48.176;16.316;2023-03-17T08:25:27;4.80;;;2.57;;
20814;SDS011;10568;48.176;16.316;2023-03-17T08:27:53;3.67;;;2.23;;
20814;SDS011;10568;48.176;16.316;2023-03-17T08:30:20;2.80;;;1.93;;
20814;SDS011;10568;48.176;16.316;2023-03-17T08:32:46;2.77;;;1.77;;
20814;SDS011;10568;48.176;16.316;2023-03-17T08:35:13;3.17;;;1.63;;
20814;SDS011;10568;48.176;16.316;2023-03-17T08:37:43;4.83;;;2.37;;
20814;SDS011;10568;48.176;16.316;2023-03-17T08:40:10;3.80;;;2.10;;
20814;SDS011;10568;48.176;16.316;2023-03-17T08:42:38;3.50;;;1.87;;
20814;SDS011;10568;48.176;16.316;2023-03-17T08:45:04;3.40;;;2.10;;
20814;SDS011;10568;48.176;16.316;2023-03-17T08:47:34;3.13;;;2.00;;
20814;SDS011;10568;48.176;16.316;2023-03-17T08:50:00;4.03;;;2.27;;
20814;SDS011;10568;48.176;16.316;2023-03-17T08:52:26;4.93;;;2.23;;
20814;SDS011;10568;48.176;16.316;2023-03-17T08:54:53;4.90;;;2.60;;
20814;SDS011;10568;48.176;16.316;2023-03-17T08:57:19;3.90;;;2.30;;
20814;SDS011;10568;48.176;16.316;2023-03-17T08:59:46;3.20;;;2.10;;
20814;SDS011;10568;48.176;16.316;2023-03-17T09:02:12;4.40;;;2.60;;
20814;SDS011;10568;48.176;16.316;2023-03-17T09:04:39;5.37;;;2.43;;
20814;SDS011;10568;48.176;16.316;2023-03-17T09:07:05;5.13;;;2.43;;
20814;SDS011;10568;48.176;16.316;2023-03-17T09:09:34;3.63;;;2.27;;
20814;SDS011;10568;48.176;16.316;2023-03-17T09:12:00;5.43;;;2.57;;
20814;SDS011;10568;48.176;16.316;2023-03-17T09:14:28;3.10;;;2.20;;
20814;SDS011;10568;48.176;16.316;2023-03-17T09:16:54;3.83;;;2.57;;
20814;SDS011;10568;48.176;16.316;2023-03-17T09:19:20;4.13;;;2.30;;
20814;SDS011;10568;48.176;16.316;2023-03-17T09:21:46;3.90;;;2.40;;
20814;SDS011;10568;48.176;16.316;2023-03-17T09:24:12;7.07;;;2.50;;
20814;SDS011;10568;48.176;16.316;2023-03-17T09:26:38;4.53;;;2.90;;
20814;SDS011;10568;48.176;16.316;2023-03-17T09:29:05;4.10;;;2.50;;
20814;SDS011;10568;48.176;16.316;2023-03-17T09:31:32;3.70;;;2.43;;
20814;SDS011;10568;48.176;16.316;2023-03-17T09:34:00;4.57;;;2.63;;
20814;SDS011;10568;48.176;16.316;2023-03-17T09:36:26;4.00;;;2.10;;
20814;SDS011;10568;48.176;16.316;2023-03-17T09:38:52;7.27;;;2.93;;
20814;SDS011;10568;48.176;16.316;2023-03-17T09:49:57;3.40;;;2.17;;
20814;SDS011;10568;48.176;16.316;2023-03-17T09:52:27;6.20;;;2.40;;
20814;SDS011;10568;48.176;16.316;2023-03-17T09:54:55;5.93;;;2.40;;
20814;SDS011;10568;48.176;16.316;2023-03-17T10:02:35;3.40;;;2.13;;
20814;SDS011;10568;48.176;16.316;2023-03-17T10:05:18;2.93;;;2.13;;
20814;SDS011;10568;48.176;16.316;2023-03-17T10:18:41;4.77;;;2.40;;
20814;SDS011;10568;48.176;16.316;2023-03-17T10:21:14;3.50;;;1.90;;
20814;SDS011;10568;48.176;16.316;2023-03-17T10:23:45;5.50;;;2.30;;
20814;SDS011;10568;48.176;16.316;2023-03-17T10:26:25;2.73;;;2.00;;
20814;SDS011;10568;48.176;16.316;2023-03-17T10:28:54;2.63;;;1.80;;
20814;SDS011;10568;48.176;16.316;2023-03-17T10:31:28;7.07;;;1.90;;
20814;SDS011;10568;48.176;16.316;2023-03-17T10:33:57;3.53;;;2.23;;
20814;SDS011;10568;48.176;16.316;2023-03-17T10:36:43;2.83;;;1.93;;
20814;SDS011;10568;48.176;16.316;2023-03-17T10:39:19;3.07;;;1.97;;
20814;SDS011;10568;48.176;16.316;2023-03-17T10:41:52;3.13;;;1.93;;
20814;SDS011;10568;48.176;16.316;2023-03-17T10:47:04;3.47;;;1.80;;
20814;SDS011;10568;48.176;16.316;2023-03-17T10:49:34;4.27;;;2.00;;
20814;SDS011;10568;48.176;16.316;2023-03-17T10:52:04;3.23;;;2.07;;
20814;SDS011;10568;48.176;16.316;2023-03-17T10:54:33;5.37;;;2.40;;
20814;SDS011;10568;48.176;16.316;2023-03-17T10:57:00;6.10;;;2.40;;
20814;SDS011;10568;48.176;16.316;2023-03-17T10:59:31;4.87;;;2.20;;
20814;SDS011;10568;48.176;16.316;2023-03-17T11:02:06;5.47;;;2.60;;
20814;SDS011;10568;48.176;16.316;2023-03-17T11:04:43;3.67;;;2.10;;
20814;SDS011;10568;48.176;16.316;2023-03-17T11:07:16;4.70;;;1.97;;
20814;SDS011;10568;48.176;16.316;2023-03-17T11:09:55;3.57;;;2.23;;
20814;SDS011;10568;48.176;16.316;2023-03-17T11:12:24;3.80;;;2.20;;
20814;SDS011;10568;48.176;16.316;2023-03-17T11:14:53;3.57;;;1.90;;
20814;SDS011;10568;48.176;16.316;2023-03-17T11:17:32;4.93;;;1.90;;
20814;SDS011;10568;48.176;16.316;2023-03-17T11:25:01;3.83;;;2.37;;
20814;SDS011;10568;48.176;16.316;2023-03-17T11:27:33;4.43;;;2.33;;
20814;SDS011;10568;48.176;16.316;2023-03-17T11:30:09;3.10;;;2.17;;
20814;SDS011;10568;48.176;16.316;2023-03-17T11:33:03;4.40;;;2.33;;
20814;SDS011;10568;48.176;16.316;2023-03-17T11:38:34;4.13;;;2.23;;
20814;SDS011;10568;48.176;16.316;2023-03-17T11:41:25;5.30;;;2.30;;
20814;SDS011;10568;48.176;16.316;2023-03-17T11:47:02;3.37;;;2.10;;
20814;SDS011;10568;48.176;16.316;2023-03-17T11:49:32;3.23;;;2.10;;
20814;SDS011;10568;48.176;16.316;2023-03-17T11:57:30;3.83;;;2.27;;
20814;SDS011;10568;48.176;16.316;2023-03-17T12:00:20;2.83;;;1.90;;
20814;SDS011;10568;48.176;16.316;2023-03-17T12:05:49;3.27;;;2.30;;
20814;SDS011;10568;48.176;16.316;2023-03-17T12:08:31;3.80;;;2.10;;
20814;SDS011;10568;48.176;16.316;2023-03-17T12:11:07;3.67;;;1.93;;
20814;SDS011;10568;48.176;16.316;2023-03-17T12:19:13;4.27;;;2.33;;
20814;SDS011;10568;48.176;16.316;2023-03-17T12:22:18;5.17;;;1.90;;
20814;SDS011;10568;48.176;16.316;2023-03-17T12:27:43;3.37;;;1.90;;
20814;SDS011;10568;48.176;16.316;2023-03-17T12:30:32;3.63;;;2.10;;
20814;SDS011;10568;48.176;16.316;2023-03-17T12:33:20;5.93;;;2.40;;
20814;SDS011;10568;48.176;16.316;2023-03-17T12:35:54;3.37;;;2.10;;
20814;SDS011;10568;48.176;16.316;2023-03-17T12:41:08;4.00;;;2.03;;
20814;SDS011;10568;48.176;16.316;2023-03-17T12:55:16;2.67;;;2.00;;
20814;SDS011;10568;48.176;16.316;2023-03-17T12:57:56;3.73;;;2.53;;
20814;SDS011;10568;48.176;16.316;2023-03-17T13:00:27;3.10;;;2.03;;
20814;SDS011;10568;48.176;16.316;2023-03-17T13:03:18;4.87;;;2.10;;
20814;SDS011;10568;48.176;16.316;2023-03-17T13:05:50;5.17;;;2.57;;
20814;SDS011;10568;48.176;16.316;2023-03-17T13:08:29;3.40;;;2.20;;
20814;SDS011;10568;48.176;16.316;2023-03-17T13:17:02;2.67;;;2.00;;
20814;SDS011;10568;48.176;16.316;2023-03-17T13:19:56;3.57;;;2.10;;
20814;SDS011;10568;48.176;16.316;2023-03-17T13:33:16;4.20;;;2.20;;
20814;SDS011;10568;48.176;16.316;2023-03-17T13:51:52;4.23;;;1.93;;
20814;SDS011;10568;48.176;16.316;2023-03-17T13:56:55;3.40;;;2.10;;
20814;SDS011;10568;48.176;16.316;2023-03-17T14:00:25;5.63;;;2.43;;
20814;SDS011;10568;48.176;16.316;2023-03-17T14:02:28;3.77;;;2.40;;
20814;SDS011;10568;48.176;16.316;2023-03-17T14:04:58;3.00;;;2.30;;
20814;SDS011;10568;48.176;16.316;2023-03-17T14:07:31;7.53;;;2.73;;
20814;SDS011;10568;48.176;16.316;2023-03-17T14:10:20;6.50;;;2.80;;
20814;SDS011;10568;48.176;16.316;2023-03-17T14:16:05;2.80;;;2.10;;
20814;SDS011;10568;48.176;16.316;2023-03-17T14:18:39;5.30;;;2.53;;
20814;SDS011;10568;48.176;16.316;2023-03-17T14:24:16;7.57;;;2.90;;
20814;SDS011;10568;48.176;16.316;2023-03-17T14:26:50;5.13;;;2.97;;
20814;SDS011;10568;48.176;16.316;2023-03-17T14:29:18;4.70;;;2.87;;
20814;SDS011;10568;48.176;16.316;2023-03-17T14:32:05;3.67;;;2.87;;
20814;SDS011;10568;48.176;16.316;2023-03-17T14:34:42;4.03;;;2.33;;
20814;SDS011;10568;48.176;16.316;2023-03-17T14:37:13;4.47;;;2.80;;
20814;SDS011;10568;48.176;16.316;2023-03-17T14:39:44;4.60;;;2.80;;
20814;SDS011;10568;48.176;16.316;2023-03-17T14:42:12;4.00;;;2.80;;
20814;SDS011;10568;48.176;16.316;2023-03-17T14:44:39;4.30;;;2.47;;
20814;SDS011;10568;48.176;16.316;2023-03-17T14:47:14;4.57;;;2.90;;
20814;SDS011;10568;48.176;16.316;2023-03-17T14:49:43;3.90;;;2.60;;
20814;SDS011;10568;48.176;16.316;2023-03-17T14:52:19;5.33;;;2.90;;
20814;SDS011;10568;48.176;16.316;2023-03-17T14:54:51;4.93;;;2.60;;
20814;SDS011;10568;48.176;16.316;2023-03-17T14:57:25;4.83;;;2.90;;
20814;SDS011;10568;48.176;16.316;2023-03-17T15:02:51;4.93;;;2.73;;
20814;SDS011;10568;48.176;16.316;2023-03-17T15:07:54;6.63;;;3.33;;
20814;SDS011;10568;48.176;16.316;2023-03-17T15:10:21;6.23;;;2.90;;
20814;SDS011;10568;48.176;16.316;2023-03-17T15:12:50;4.27;;;2.60;;
20814;SDS011;10568;48.176;16.316;2023-03-17T15:15:29;3.93;;;2.33;;
20814;SDS011;10568;48.176;16.316;2023-03-17T15:17:58;5.53;;;3.27;;
20814;SDS011;10568;48.176;16.316;2023-03-17T15:20:28;5.60;;;2.87;;
20814;SDS011;10568;48.176;16.316;2023-03-17T15:22:58;4.57;;;3.07;;
20814;SDS011;10568;48.176;16.316;2023-03-17T15:28:06;4.93;;;2.60;;
20814;SDS011;10568;48.176;16.316;2023-03-17T15:30:40;6.00;;;2.90;;
20814;SDS011;10568;48.176;16.316;2023-03-17T15:33:20;3.07;;;2.50;;
20814;SDS011;10568;48.176;16.316;2023-03-17T15:35:46;4.17;;;2.37;;
20814;SDS011;10568;48.176;16.316;2023-03-17T15:38:13;3.20;;;2.30;;
20814;SDS011;10568;48.176;16.316;2023-03-17T15:40:38;3.60;;;2.27;;
20814;SDS011;10568;48.176;16.316;2023-03-17T15:43:04;3.77;;;2.17;;
20814;SDS011;10568;48.176;16.316;2023-03-17T15:45:30;3.70;;;2.43;;
20814;SDS011;10568;48.176;16.316;2023-03-17T15:47:56;5.73;;;2.60;;
20814;SDS011;10568;48.176;16.316;2023-03-17T15:50:26;5.03;;;2.47;;
20814;SDS011;10568;48.176;16.316;2023-03-17T15:52:54;5.07;;;2.37;;
20814;SDS011;10568;48.176;16.316;2023-03-17T15:55:23;3.47;;;2.23;;
20814;SDS011;10568;48.176;16.316;2023-03-17T15:57:50;4.27;;;1.80;;
20814;SDS011;10568;48.176;16.316;2023-03-17T16:00:17;4.27;;;2.30;;
20814;SDS011;10568;48.176;16.316;2023-03-17T16:02:44;3.50;;;2.30;;
20814;SDS011;10568;48.176;16.316;2023-03-17T16:08:15;3.40;;;2.10;;
20814;SDS011;10568;48.176;16.316;2023-03-17T16:10:42;3.73;;;2.30;;
20814;SDS011;10568;48.176;16.316;2023-03-17T16:13:08;3.87;;;1.97;;
20814;SDS011;10568;48.176;16.316;2023-03-17T16:15:36;3.23;;;2.17;;
20814;SDS011;10568;48.176;16.316;2023-03-17T16:18:06;3.90;;;2.60;;
20814;SDS011;10568;48.176;16.316;2023-03-17T16:20:45;3.80;;;2.17;;
20814;SDS011;10568;48.176;16.316;2023-03-17T16:23:18;2.63;;;2.13;;
20814;SDS011;10568;48.176;16.316;2023-03-17T16:25:51;4.07;;;2.13;;
20814;SDS011;10568;48.176;16.316;2023-03-17T16:28:18;3.63;;;1.93;;
20814;SDS011;10568;48.176;16.316;2023-03-17T16:30:44;3.33;;;2.33;;
20814;SDS011;10568;48.176;16.316;2023-03-17T16:33:14;3.93;;;2.40;;
20814;SDS011;10568;48.176;16.316;2023-03-17T16:35:42;4.03;;;2.50;;
20814;SDS011;10568;48.176;16.316;2023-03-17T16:38:09;2.83;;;2.23;;
20814;SDS011;10568;48.176;16.316;2023-03-17T16:40:37;3.73;;;2.33;;
20814;SDS011;10568;48.176;16.316;2023-03-17T16:43:03;3.07;;;1.83;;
20814;SDS011;10568;48.176;16.316;2023-03-17T16:45:32;3.63;;;2.20;;
20814;SDS011;10568;48.176;16.316;2023-03-17T16:47:59;3.53;;;1.80;;
20814;SDS011;10568;48.176;16.316;2023-03-17T16:50:28;5.67;;;2.67;;
20814;SDS011;10568;48.176;16.316;2023-03-17T16:52:55;4.83;;;2.43;;
20814;SDS011;10568;48.176;16.316;2023-03-17T16:55:22;4.93;;;2.50;;
20814;SDS011;10568;48.176;16.316;2023-03-17T16:57:49;3.03;;;2.20;;
20814;SDS011;10568;48.176;16.316;2023-03-17T17:00:22;3.07;;;2.00;;
20814;SDS011;10568;48.176;16.316;2023-03-17T17:02:49;4.60;;;2.67;;
20814;SDS011;10568;48.176;16.316;2023-03-17T17:05:17;3.33;;;1.87;;